Silver Ridge, Maine
Current Conditions -  °F | °C
As of 9:53 AM on Monday 22 Dec 2014 (Local Time) from KMLT Reporting Station
Overcast Overcast  
Wind Chill: 28°   Ceiling: 4900
Heat Index: 28°   Visibility: 10mi
Dew Point: 25°   Wind: 0mph
Humidity: 88%   Direction: NA
Pressure: 30.45"   Gusts: NA
Location:  45.8047°N, 68.2984°W
Report Text: KMLT 221453Z AUTO 00000KT 10SM SCT006 OVC049 M02/M04 A3045 RMK AO2 SLP321 T10221039 51008
Loading
Personal Weather Stations






























Interactive Weather Map New forecast layout! Learn more

10-Day Weather Forecast

Advertisements
Track Severe Weather on mobile